sensor_id;sensor_type;location;lat;lon;timestamp;temperature;humidity
27890;DHT22;15238;49.082;9.102;2024-01-10T00:00:52;-5.10;99.90
27890;DHT22;15238;49.082;9.102;2024-01-10T00:02:52;-5.10;99.90
27890;DHT22;15238;49.082;9.102;2024-01-10T00:04:53;-5.10;99.90
27890;DHT22;15238;49.082;9.102;2024-01-10T00:06:53;-5.10;99.90
27890;DHT22;15238;49.082;9.102;2024-01-10T00:08:54;-5.10;99.90
27890;DHT22;15238;49.082;9.102;2024-01-10T00:10:54;-5.10;99.90
27890;DHT22;15238;49.082;9.102;2024-01-10T00:12:55;-5.00;99.90
27890;DHT22;15238;49.082;9.102;2024-01-10T00:14:55;-5.00;99.90
27890;DHT22;15238;49.082;9.102;2024-01-10T00:16:56;-5.00;99.90
27890;DHT22;15238;49.082;9.102;2024-01-10T00:18:56;-5.00;99.90
27890;DHT22;15238;49.082;9.102;2024-01-10T00:20:57;-4.90;99.90
27890;DHT22;15238;49.082;9.102;2024-01-10T00:22:58;-4.90;99.90
27890;DHT22;15238;49.082;9.102;2024-01-10T00:24:58;-4.90;99.90
27890;DHT22;15238;49.082;9.102;2024-01-10T00:26:59;-4.90;99.90
27890;DHT22;15238;49.082;9.102;2024-01-10T00:28:59;-4.90;99.90
27890;DHT22;15238;49.082;9.102;2024-01-10T00:31:00;-4.80;99.90
27890;DHT22;15238;49.082;9.102;2024-01-10T00:33:00;-4.80;99.90
27890;DHT22;15238;49.082;9.102;2024-01-10T00:35:01;-4.80;99.90
27890;DHT22;15238;49.082;9.102;2024-01-10T00:37:01;-4.80;99.90
27890;DHT22;15238;49.082;9.102;2024-01-10T00:39:02;-4.80;99.90
27890;DHT22;15238;49.082;9.102;2024-01-10T00:41:02;-4.80;99.90
27890;DHT22;15238;49.082;9.102;2024-01-10T00:43:03;-4.80;99.90
27890;DHT22;15238;49.082;9.102;2024-01-10T00:45:04;-4.70;99.90
27890;DHT22;15238;49.082;9.102;2024-01-10T00:47:05;-4.70;99.90
27890;DHT22;15238;49.082;9.102;2024-01-10T00:49:05;-4.70;99.90
27890;DHT22;15238;49.082;9.102;2024-01-10T00:51:06;-4.70;99.90
27890;DHT22;15238;49.082;9.102;2024-01-10T00:53:08;-4.70;99.90
27890;DHT22;15238;49.082;9.102;2024-01-10T00:55:09;-4.60;99.90
27890;DHT22;15238;49.082;9.102;2024-01-10T00:57:10;-4.70;99.90
27890;DHT22;15238;49.082;9.102;2024-01-10T00:59:10;-4.60;99.90
27890;DHT22;15238;49.082;9.102;2024-01-10T01:01:11;-4.60;99.90
27890;DHT22;15238;49.082;9.102;2024-01-10T01:03:11;-4.60;99.90
27890;DHT22;15238;49.082;9.102;2024-01-10T01:05:12;-4.60;99.90
27890;DHT22;15238;49.082;9.102;2024-01-10T01:07:12;-4.60;99.90
27890;DHT22;15238;49.082;9.102;2024-01-10T01:09:13;-4.60;99.90
27890;DHT22;15238;49.082;9.102;2024-01-10T01:11:15;-4.60;99.90
27890;DHT22;15238;49.082;9.102;2024-01-10T01:13:16;-4.60;99.90
27890;DHT22;15238;49.082;9.102;2024-01-10T01:15:16;-4.60;99.90
27890;DHT22;15238;49.082;9.102;2024-01-10T01:17:17;-4.60;99.90
27890;DHT22;15238;49.082;9.102;2024-01-10T01:19:17;-4.60;99.90
27890;DHT22;15238;49.082;9.102;2024-01-10T01:21:18;-4.60;99.90
27890;DHT22;15238;49.082;9.102;2024-01-10T01:23:18;-4.60;99.90
27890;DHT22;15238;49.082;9.102;2024-01-10T01:25:19;-4.60;99.90
27890;DHT22;15238;49.082;9.102;2024-01-10T01:27:20;-4.60;99.90
27890;DHT22;15238;49.082;9.102;2024-01-10T01:29:20;-4.60;99.90
27890;DHT22;15238;49.082;9.102;2024-01-10T01:31:21;-4.60;99.90
27890;DHT22;15238;49.082;9.102;2024-01-10T01:33:21;-4.60;99.90
27890;DHT22;15238;49.082;9.102;2024-01-10T01:35:22;-4.60;99.90
27890;DHT22;15238;49.082;9.102;2024-01-10T01:37:22;-4.50;99.90
27890;DHT22;15238;49.082;9.102;2024-01-10T01:39:23;-4.50;99.90
27890;DHT22;15238;49.082;9.102;2024-01-10T01:41:23;-4.50;99.90
27890;DHT22;15238;49.082;9.102;2024-01-10T01:43:25;-4.40;99.90
27890;DHT22;15238;49.082;9.102;2024-01-10T01:45:26;-4.40;99.90
27890;DHT22;15238;49.082;9.102;2024-01-10T01:47:26;-4.40;99.90
27890;DHT22;15238;49.082;9.102;2024-01-10T01:49:27;-4.40;99.90
27890;DHT22;15238;49.082;9.102;2024-01-10T01:51:29;-4.40;99.90
27890;DHT22;15238;49.082;9.102;2024-01-10T01:53:30;-4.40;99.90
27890;DHT22;15238;49.082;9.102;2024-01-10T01:55:31;-4.40;99.90
27890;DHT22;15238;49.082;9.102;2024-01-10T01:57:32;-4.40;99.90
27890;DHT22;15238;49.082;9.102;2024-01-10T01:59:33;-4.40;99.90
27890;DHT22;15238;49.082;9.102;2024-01-10T02:01:33;-4.40;99.90
27890;DHT22;15238;49.082;9.102;2024-01-10T02:03:34;-4.40;99.90
27890;DHT22;15238;49.082;9.102;2024-01-10T02:05:35;-4.30;99.90
27890;DHT22;15238;49.082;9.102;2024-01-10T02:07:35;-4.30;99.90
27890;DHT22;15238;49.082;9.102;2024-01-10T02:09:36;-4.30;99.90
27890;DHT22;15238;49.082;9.102;2024-01-10T02:11:36;-4.30;99.90
27890;DHT22;15238;49.082;9.102;2024-01-10T02:13:37;-4.30;99.90
27890;DHT22;15238;49.082;9.102;2024-01-10T02:15:38;-4.30;99.90
27890;DHT22;15238;49.082;9.102;2024-01-10T02:17:39;-4.30;99.90
27890;DHT22;15238;49.082;9.102;2024-01-10T02:19:39;-4.30;99.90
27890;DHT22;15238;49.082;9.102;2024-01-10T02:21:40;-4.20;99.90
27890;DHT22;15238;49.082;9.102;2024-01-10T02:23:40;-4.30;99.90
27890;DHT22;15238;49.082;9.102;2024-01-10T02:25:41;-4.20;99.90
27890;DHT22;15238;49.082;9.102;2024-01-10T02:27:41;-4.30;99.90
27890;DHT22;15238;49.082;9.102;2024-01-10T02:29:42;-4.20;99.90
27890;DHT22;15238;49.082;9.102;2024-01-10T02:31:42;-4.20;99.90
27890;DHT22;15238;49.082;9.102;2024-01-10T02:33:43;-4.20;99.90
27890;DHT22;15238;49.082;9.102;2024-01-10T02:35:43;-4.10;99.90
27890;DHT22;15238;49.082;9.102;2024-01-10T02:37:47;-4.20;99.90
27890;DHT22;15238;49.082;9.102;2024-01-10T02:39:50;-4.10;99.90
27890;DHT22;15238;49.082;9.102;2024-01-10T02:41:51;-4.10;99.90
27890;DHT22;15238;49.082;9.102;2024-01-10T02:43:51;-4.10;99.90
27890;DHT22;15238;49.082;9.102;2024-01-10T02:45:52;-4.00;99.90
27890;DHT22;15238;49.082;9.102;2024-01-10T02:47:52;-4.00;99.90
27890;DHT22;15238;49.082;9.102;2024-01-10T02:49:53;-4.10;99.90
27890;DHT22;15238;49.082;9.102;2024-01-10T02:51:53;-4.00;99.90
27890;DHT22;15238;49.082;9.102;2024-01-10T02:53:54;-4.00;99.90
27890;DHT22;15238;49.082;9.102;2024-01-10T02:55:54;-3.90;99.90
27890;DHT22;15238;49.082;9.102;2024-01-10T02:57:55;-4.00;99.90
27890;DHT22;15238;49.082;9.102;2024-01-10T02:59:55;-4.00;99.90
27890;DHT22;15238;49.082;9.102;2024-01-10T03:01:56;-4.00;99.90
27890;DHT22;15238;49.082;9.102;2024-01-10T03:03:56;-4.10;99.90
27890;DHT22;15238;49.082;9.102;2024-01-10T03:05:57;-4.00;99.90
27890;DHT22;15238;49.082;9.102;2024-01-10T03:07:57;-4.00;99.90
27890;DHT22;15238;49.082;9.102;2024-01-10T03:09:58;-4.00;99.90
27890;DHT22;15238;49.082;9.102;2024-01-10T03:11:58;-4.00;99.90
27890;DHT22;15238;49.082;9.102;2024-01-10T03:14:03;-4.00;99.90
27890;DHT22;15238;49.082;9.102;2024-01-10T03:16:04;-4.00;99.90
27890;DHT22;15238;49.082;9.102;2024-01-10T03:18:06;-4.00;99.90
27890;DHT22;15238;49.082;9.102;2024-01-10T03:20:07;-4.00;99.90
27890;DHT22;15238;49.082;9.102;2024-01-10T03:22:08;-3.90;99.90
27890;DHT22;15238;49.082;9.102;2024-01-10T03:24:09;-4.00;99.90
27890;DHT22;15238;49.082;9.102;2024-01-10T03:26:10;-4.10;99.90
27890;DHT22;15238;49.082;9.102;2024-01-10T03:28:10;-4.10;99.90
27890;DHT22;15238;49.082;9.102;2024-01-10T03:30:11;-4.10;99.90
27890;DHT22;15238;49.082;9.102;2024-01-10T03:32:12;-4.10;99.90
27890;DHT22;15238;49.082;9.102;2024-01-10T03:34:12;-4.10;99.90
27890;DHT22;15238;49.082;9.102;2024-01-10T03:36:15;-4.10;99.90
27890;DHT22;15238;49.082;9.102;2024-01-10T03:38:16;-4.20;99.90
27890;DHT22;15238;49.082;9.102;2024-01-10T03:40:16;-4.10;99.90
27890;DHT22;15238;49.082;9.102;2024-01-10T03:42:17;-4.20;99.90
27890;DHT22;15238;49.082;9.102;2024-01-10T03:44:17;-4.20;99.90
27890;DHT22;15238;49.082;9.102;2024-01-10T03:46:18;-4.20;99.90
27890;DHT22;15238;49.082;9.102;2024-01-10T03:48:18;-4.30;99.90
27890;DHT22;15238;49.082;9.102;2024-01-10T03:50:19;-4.30;99.90
27890;DHT22;15238;49.082;9.102;2024-01-10T03:52:20;-4.30;99.90
27890;DHT22;15238;49.082;9.102;2024-01-10T03:54:20;-4.30;99.90
27890;DHT22;15238;49.082;9.102;2024-01-10T03:56:21;-4.30;99.90
27890;DHT22;15238;49.082;9.102;2024-01-10T03:58:22;-4.30;99.90
27890;DHT22;15238;49.082;9.102;2024-01-10T04:00:22;-4.40;99.90
27890;DHT22;15238;49.082;9.102;2024-01-10T04:02:23;-4.40;99.90
27890;DHT22;15238;49.082;9.102;2024-01-10T04:04:23;-4.40;99.90
27890;DHT22;15238;49.082;9.102;2024-01-10T04:06:24;-4.40;99.90
27890;DHT22;15238;49.082;9.102;2024-01-10T04:08:24;-4.40;99.90
27890;DHT22;15238;49.082;9.102;2024-01-10T04:10:25;-4.40;99.90
27890;DHT22;15238;49.082;9.102;2024-01-10T04:12:25;-4.40;99.90
27890;DHT22;15238;49.082;9.102;2024-01-10T04:14:26;-4.40;99.90
27890;DHT22;15238;49.082;9.102;2024-01-10T04:16:27;-4.40;99.90
27890;DHT22;15238;49.082;9.102;2024-01-10T04:18:28;-4.40;99.90
27890;DHT22;15238;49.082;9.102;2024-01-10T04:20:28;-4.40;99.90
27890;DHT22;15238;49.082;9.102;2024-01-10T04:22:29;-4.50;99.90
27890;DHT22;15238;49.082;9.102;2024-01-10T04:24:29;-4.50;99.90
27890;DHT22;15238;49.082;9.102;2024-01-10T04:26:30;-4.40;99.90
27890;DHT22;15238;49.082;9.102;2024-01-10T04:28:30;-4.50;99.90
27890;DHT22;15238;49.082;9.102;2024-01-10T04:30:31;-4.40;99.90
27890;DHT22;15238;49.082;9.102;2024-01-10T04:32:31;-4.40;99.90
27890;DHT22;15238;49.082;9.102;2024-01-10T04:34:32;-4.30;99.90
27890;DHT22;15238;49.082;9.102;2024-01-10T04:36:32;-4.40;99.90
27890;DHT22;15238;49.082;9.102;2024-01-10T04:38:33;-4.40;99.90
27890;DHT22;15238;49.082;9.102;2024-01-10T04:40:33;-4.40;99.90
27890;DHT22;15238;49.082;9.102;2024-01-10T04:42:34;-4.40;99.90
27890;DHT22;15238;49.082;9.102;2024-01-10T04:44:35;-4.40;99.90
27890;DHT22;15238;49.082;9.102;2024-01-10T04:46:35;-4.40;99.90
27890;DHT22;15238;49.082;9.102;2024-01-10T04:48:36;-4.40;99.90
27890;DHT22;15238;49.082;9.102;2024-01-10T04:50:37;-4.40;99.90
27890;DHT22;15238;49.082;9.102;2024-01-10T04:52:37;-4.40;99.90
27890;DHT22;15238;49.082;9.102;2024-01-10T04:54:38;-4.40;99.90
27890;DHT22;15238;49.082;9.102;2024-01-10T04:56:38;-4.30;99.90
27890;DHT22;15238;49.082;9.102;2024-01-10T04:58:39;-4.30;99.90
27890;DHT22;15238;49.082;9.102;2024-01-10T05:00:39;-4.30;99.90
27890;DHT22;15238;49.082;9.102;2024-01-10T05:02:40;-4.30;99.90
27890;DHT22;15238;49.082;9.102;2024-01-10T05:04:40;-4.30;99.90
27890;DHT22;15238;49.082;9.102;2024-01-10T05:06:41;-4.30;99.90
27890;DHT22;15238;49.082;9.102;2024-01-10T05:08:42;-4.30;99.90
27890;DHT22;15238;49.082;9.102;2024-01-10T05:10:42;-4.30;99.90
27890;DHT22;15238;49.082;9.102;2024-01-10T05:12:43;-4.30;99.90
27890;DHT22;15238;49.082;9.102;2024-01-10T05:14:44;-4.30;99.90
27890;DHT22;15238;49.082;9.102;2024-01-10T05:16:44;-4.30;99.90
27890;DHT22;15238;49.082;9.102;2024-01-10T05:18:45;-4.30;99.90
27890;DHT22;15238;49.082;9.102;2024-01-10T05:20:45;-4.30;99.90
27890;DHT22;15238;49.082;9.102;2024-01-10T05:22:46;-4.20;99.90
27890;DHT22;15238;49.082;9.102;2024-01-10T05:24:46;-4.20;99.90
27890;DHT22;15238;49.082;9.102;2024-01-10T05:26:47;-4.20;99.90
27890;DHT22;15238;49.082;9.102;2024-01-10T05:28:51;-4.20;99.90
27890;DHT22;15238;49.082;9.102;2024-01-10T05:30:52;-4.20;99.90
27890;DHT22;15238;49.082;9.102;2024-01-10T05:32:52;-4.20;99.90
27890;DHT22;15238;49.082;9.102;2024-01-10T05:34:56;-4.20;99.90
27890;DHT22;15238;49.082;9.102;2024-01-10T05:36:56;-4.20;99.90
27890;DHT22;15238;49.082;9.102;2024-01-10T05:38:57;-4.20;99.90
27890;DHT22;15238;49.082;9.102;2024-01-10T05:40:57;-4.20;99.90
27890;DHT22;15238;49.082;9.102;2024-01-10T05:42:58;-4.20;99.90
27890;DHT22;15238;49.082;9.102;2024-01-10T05:45:02;-4.10;99.90
27890;DHT22;15238;49.082;9.102;2024-01-10T05:47:02;-4.10;99.90
27890;DHT22;15238;49.082;9.102;2024-01-10T05:49:03;-4.10;99.90
27890;DHT22;15238;49.082;9.102;2024-01-10T05:51:04;-4.10;99.90
27890;DHT22;15238;49.082;9.102;2024-01-10T05:53:05;-4.00;99.90
27890;DHT22;15238;49.082;9.102;2024-01-10T05:55:06;-4.00;99.90
27890;DHT22;15238;49.082;9.102;2024-01-10T05:57:08;-4.00;99.90
27890;DHT22;15238;49.082;9.102;2024-01-10T05:59:09;-4.00;99.90
27890;DHT22;15238;49.082;9.102;2024-01-10T06:01:11;-4.00;99.90
27890;DHT22;15238;49.082;9.102;2024-01-10T06:03:12;-4.00;99.90
27890;DHT22;15238;49.082;9.102;2024-01-10T06:05:12;-3.90;99.90
27890;DHT22;15238;49.082;9.102;2024-01-10T06:07:13;-3.90;99.90
27890;DHT22;15238;49.082;9.102;2024-01-10T06:09:13;-3.80;99.90
27890;DHT22;15238;49.082;9.102;2024-01-10T06:11:15;-3.80;99.90
27890;DHT22;15238;49.082;9.102;2024-01-10T06:13:16;-3.80;99.90
27890;DHT22;15238;49.082;9.102;2024-01-10T06:15:16;-3.80;99.90
27890;DHT22;15238;49.082;9.102;2024-01-10T06:17:17;-3.80;99.90
27890;DHT22;15238;49.082;9.102;2024-01-10T06:19:18;-3.80;99.90
27890;DHT22;15238;49.082;9.102;2024-01-10T06:21:18;-3.80;99.90
27890;DHT22;15238;49.082;9.102;2024-01-10T06:23:19;-3.80;99.90
27890;DHT22;15238;49.082;9.102;2024-01-10T06:25:19;-3.80;99.90
27890;DHT22;15238;49.082;9.102;2024-01-10T06:27:20;-3.80;99.90
27890;DHT22;15238;49.082;9.102;2024-01-10T06:29:20;-3.80;99.90
27890;DHT22;15238;49.082;9.102;2024-01-10T06:31:21;-3.80;99.90
27890;DHT22;15238;49.082;9.102;2024-01-10T06:33:22;-3.70;99.90
27890;DHT22;15238;49.082;9.102;2024-01-10T06:35:22;-3.70;99.90
27890;DHT22;15238;49.082;9.102;2024-01-10T06:37:26;-3.70;99.90
27890;DHT22;15238;49.082;9.102;2024-01-10T06:39:26;-3.70;99.90
27890;DHT22;15238;49.082;9.102;2024-01-10T06:41:27;-3.70;99.90
27890;DHT22;15238;49.082;9.102;2024-01-10T06:43:28;-3.70;99.90
27890;DHT22;15238;49.082;9.102;2024-01-10T06:45:28;-3.70;99.90
27890;DHT22;15238;49.082;9.102;2024-01-10T06:47:29;-3.60;99.90
27890;DHT22;15238;49.082;9.102;2024-01-10T06:49:30;-3.60;99.90
27890;DHT22;15238;49.082;9.102;2024-01-10T06:51:31;-3.60;99.90
27890;DHT22;15238;49.082;9.102;2024-01-10T06:53:32;-3.60;99.90
27890;DHT22;15238;49.082;9.102;2024-01-10T06:55:32;-3.60;99.90
27890;DHT22;15238;49.082;9.102;2024-01-10T06:57:33;-3.60;99.90
27890;DHT22;15238;49.082;9.102;2024-01-10T06:59:33;-3.60;99.90
27890;DHT22;15238;49.082;9.102;2024-01-10T07:01:34;-3.60;99.90
27890;DHT22;15238;49.082;9.102;2024-01-10T07:03:34;-3.60;99.90
27890;DHT22;15238;49.082;9.102;2024-01-10T07:05:35;-3.50;99.90
27890;DHT22;15238;49.082;9.102;2024-01-10T07:07:35;-3.50;99.90
27890;DHT22;15238;49.082;9.102;2024-01-10T07:09:36;-3.50;99.90
27890;DHT22;15238;49.082;9.102;2024-01-10T07:11:37;-3.50;99.90
27890;DHT22;15238;49.082;9.102;2024-01-10T07:13:37;-3.50;99.90
27890;DHT22;15238;49.082;9.102;2024-01-10T07:15:38;-3.50;99.90
27890;DHT22;15238;49.082;9.102;2024-01-10T07:17:39;-3.40;99.90
27890;DHT22;15238;49.082;9.102;2024-01-10T07:19:40;-3.40;99.90
27890;DHT22;15238;49.082;9.102;2024-01-10T07:21:41;-3.40;99.90
27890;DHT22;15238;49.082;9.102;2024-01-10T07:23:42;-3.40;99.90
27890;DHT22;15238;49.082;9.102;2024-01-10T07:25:43;-3.40;99.90
27890;DHT22;15238;49.082;9.102;2024-01-10T07:27:44;-3.50;99.90
27890;DHT22;15238;49.082;9.102;2024-01-10T07:29:44;-3.40;99.90
27890;DHT22;15238;49.082;9.102;2024-01-10T07:31:46;-3.40;99.90
27890;DHT22;15238;49.082;9.102;2024-01-10T07:33:46;-3.40;99.90
27890;DHT22;15238;49.082;9.102;2024-01-10T07:35:47;-3.50;99.90
27890;DHT22;15238;49.082;9.102;2024-01-10T07:37:47;-3.50;99.90
27890;DHT22;15238;49.082;9.102;2024-01-10T07:39:48;-3.50;99.90
27890;DHT22;15238;49.082;9.102;2024-01-10T07:41:50;-3.50;99.90
27890;DHT22;15238;49.082;9.102;2024-01-10T07:43:51;-3.50;99.90
27890;DHT22;15238;49.082;9.102;2024-01-10T07:45:52;-3.50;99.90
27890;DHT22;15238;49.082;9.102;2024-01-10T07:47:53;-3.50;99.90
27890;DHT22;15238;49.082;9.102;2024-01-10T07:49:54;-3.50;99.90
27890;DHT22;15238;49.082;9.102;2024-01-10T07:51:54;-3.50;99.90
27890;DHT22;15238;49.082;9.102;2024-01-10T07:53:55;-3.60;99.90
27890;DHT22;15238;49.082;9.102;2024-01-10T07:55:56;-3.50;99.90
27890;DHT22;15238;49.082;9.102;2024-01-10T07:57:57;-3.50;99.90
27890;DHT22;15238;49.082;9.102;2024-01-10T07:59:57;-3.40;99.90
27890;DHT22;15238;49.082;9.102;2024-01-10T08:02:00;-3.40;99.90
27890;DHT22;15238;49.082;9.102;2024-01-10T08:04:00;-3.40;99.90
27890;DHT22;15238;49.082;9.102;2024-01-10T08:06:02;-3.30;99.90
27890;DHT22;15238;49.082;9.102;2024-01-10T08:08:03;-3.30;99.90
27890;DHT22;15238;49.082;9.102;2024-01-10T08:10:07;-3.30;99.90
27890;DHT22;15238;49.082;9.102;2024-01-10T08:12:11;-3.30;99.90
27890;DHT22;15238;49.082;9.102;2024-01-10T08:14:12;-3.20;99.90
27890;DHT22;15238;49.082;9.102;2024-01-10T08:16:12;-3.20;99.90
27890;DHT22;15238;49.082;9.102;2024-01-10T08:18:13;-3.20;99.90
27890;DHT22;15238;49.082;9.102;2024-01-10T08:20:15;-3.20;99.90
27890;DHT22;15238;49.082;9.102;2024-01-10T08:22:20;-3.10;99.90
27890;DHT22;15238;49.082;9.102;2024-01-10T08:24:20;-3.10;99.90
27890;DHT22;15238;49.082;9.102;2024-01-10T08:26:21;-3.10;99.90
27890;DHT22;15238;49.082;9.102;2024-01-10T08:28:22;-3.10;99.90
27890;DHT22;15238;49.082;9.102;2024-01-10T08:30:22;-3.10;99.90
27890;DHT22;15238;49.082;9.102;2024-01-10T08:32:23;-3.10;99.90
27890;DHT22;15238;49.082;9.102;2024-01-10T08:34:24;-3.00;99.90
27890;DHT22;15238;49.082;9.102;2024-01-10T08:36:24;-3.00;99.90
27890;DHT22;15238;49.082;9.102;2024-01-10T08:38:25;-3.00;99.90
27890;DHT22;15238;49.082;9.102;2024-01-10T08:40:25;-3.00;99.90
27890;DHT22;15238;49.082;9.102;2024-01-10T08:42:27;-2.90;99.90
27890;DHT22;15238;49.082;9.102;2024-01-10T08:44:27;-2.90;99.90
27890;DHT22;15238;49.082;9.102;2024-01-10T08:46:29;-2.90;99.90
27890;DHT22;15238;49.082;9.102;2024-01-10T08:48:29;-2.80;99.90
27890;DHT22;15238;49.082;9.102;2024-01-10T08:50:30;-2.80;99.90
27890;DHT22;15238;49.082;9.102;2024-01-10T08:52:31;-2.80;99.90
27890;DHT22;15238;49.082;9.102;2024-01-10T08:54:32;-2.80;99.90
27890;DHT22;15238;49.082;9.102;2024-01-10T08:56:32;-2.70;99.90
27890;DHT22;15238;49.082;9.102;2024-01-10T08:58:33;-2.70;99.90
27890;DHT22;15238;49.082;9.102;2024-01-10T09:00:34;-2.60;99.90
27890;DHT22;15238;49.082;9.102;2024-01-10T09:02:34;-2.50;99.90
27890;DHT22;15238;49.082;9.102;2024-01-10T09:04:37;-2.40;99.90
27890;DHT22;15238;49.082;9.102;2024-01-10T09:06:37;-2.30;99.90
27890;DHT22;15238;49.082;9.102;2024-01-10T09:08:38;-2.30;99.90
27890;DHT22;15238;49.082;9.102;2024-01-10T09:10:39;-2.20;99.90
27890;DHT22;15238;49.082;9.102;2024-01-10T09:12:42;-2.10;99.90
27890;DHT22;15238;49.082;9.102;2024-01-10T09:14:46;-2.10;99.90
27890;DHT22;15238;49.082;9.102;2024-01-10T09:16:46;-2.00;99.90
27890;DHT22;15238;49.082;9.102;2024-01-10T09:18:47;-1.90;99.90
27890;DHT22;15238;49.082;9.102;2024-01-10T09:20:50;-1.80;99.90
27890;DHT22;15238;49.082;9.102;2024-01-10T09:22:50;-1.60;99.90
27890;DHT22;15238;49.082;9.102;2024-01-10T09:24:51;-1.50;99.90
27890;DHT22;15238;49.082;9.102;2024-01-10T09:26:52;-1.40;99.90
27890;DHT22;15238;49.082;9.102;2024-01-10T09:28:52;-1.40;99.90
27890;DHT22;15238;49.082;9.102;2024-01-10T09:30:53;-1.30;99.90
27890;DHT22;15238;49.082;9.102;2024-01-10T09:32:54;-1.20;99.90
27890;DHT22;15238;49.082;9.102;2024-01-10T09:34:56;-1.10;99.90
27890;DHT22;15238;49.082;9.102;2024-01-10T09:36:57;-0.90;99.90
27890;DHT22;15238;49.082;9.102;2024-01-10T09:38:57;-0.90;99.90
27890;DHT22;15238;49.082;9.102;2024-01-10T09:40:59;-0.80;99.90
27890;DHT22;15238;49.082;9.102;2024-01-10T09:43:04;-0.80;99.90
27890;DHT22;15238;49.082;9.102;2024-01-10T09:45:06;-0.80;99.90
27890;DHT22;15238;49.082;9.102;2024-01-10T09:47:09;-0.70;99.90
27890;DHT22;15238;49.082;9.102;2024-01-10T09:49:09;-0.80;99.90
27890;DHT22;15238;49.082;9.102;2024-01-10T09:51:10;-0.80;99.90
27890;DHT22;15238;49.082;9.102;2024-01-10T09:53:21;-0.90;99.90
27890;DHT22;15238;49.082;9.102;2024-01-10T09:55:23;-0.80;99.90
27890;DHT22;15238;49.082;9.102;2024-01-10T09:57:24;-0.90;99.90
27890;DHT22;15238;49.082;9.102;2024-01-10T09:59:25;-0.80;99.90
27890;DHT22;15238;49.082;9.102;2024-01-10T10:01:26;-0.80;99.90
27890;DHT22;15238;49.082;9.102;2024-01-10T10:03:27;-0.80;99.90
27890;DHT22;15238;49.082;9.102;2024-01-10T10:05:28;-0.70;99.90
27890;DHT22;15238;49.082;9.102;2024-01-10T10:07:29;-0.70;99.90
27890;DHT22;15238;49.082;9.102;2024-01-10T10:09:31;-0.70;99.90
27890;DHT22;15238;49.082;9.102;2024-01-10T10:11:31;-0.60;99.90
27890;DHT22;15238;49.082;9.102;2024-01-10T10:13:32;-0.60;99.90
27890;DHT22;15238;49.082;9.102;2024-01-10T10:15:33;-0.60;99.90
27890;DHT22;15238;49.082;9.102;2024-01-10T10:17:34;-0.50;99.90
27890;DHT22;15238;49.082;9.102;2024-01-10T10:19:34;-0.40;99.90
27890;DHT22;15238;49.082;9.102;2024-01-10T10:21:35;-0.20;99.90
27890;DHT22;15238;49.082;9.102;2024-01-10T10:23:43;-0.20;99.90
27890;DHT22;15238;49.082;9.102;2024-01-10T10:25:44;-0.20;99.90
27890;DHT22;15238;49.082;9.102;2024-01-10T10:27:45;-0.20;99.90
27890;DHT22;15238;49.082;9.102;2024-01-10T10:29:46;-0.30;99.90
27890;DHT22;15238;49.082;9.102;2024-01-10T10:31:48;-0.20;99.90
27890;DHT22;15238;49.082;9.102;2024-01-10T10:33:49;-0.20;99.90
27890;DHT22;15238;49.082;9.102;2024-01-10T10:35:51;-0.20;99.90
27890;DHT22;15238;49.082;9.102;2024-01-10T10:37:52;-0.20;99.90
27890;DHT22;15238;49.082;9.102;2024-01-10T10:39:53;-0.20;99.90
27890;DHT22;15238;49.082;9.102;2024-01-10T10:41:54;-0.20;99.90
27890;DHT22;15238;49.082;9.102;2024-01-10T10:43:58;-0.20;99.90
27890;DHT22;15238;49.082;9.102;2024-01-10T10:45:59;-0.30;99.90
27890;DHT22;15238;49.082;9.102;2024-01-10T10:48:01;-0.20;99.90
27890;DHT22;15238;49.082;9.102;2024-01-10T10:50:03;-0.20;99.90
27890;DHT22;15238;49.082;9.102;2024-01-10T10:52:04;-0.20;99.90
27890;DHT22;15238;49.082;9.102;2024-01-10T10:54:06;-0.20;99.90
27890;DHT22;15238;49.082;9.102;2024-01-10T10:56:08;-0.10;99.90
27890;DHT22;15238;49.082;9.102;2024-01-10T10:58:09;-0.10;99.90
27890;DHT22;15238;49.082;9.102;2024-01-10T11:00:15;-0.10;99.90
27890;DHT22;15238;49.082;9.102;2024-01-10T11:02:21;-0.10;99.90
27890;DHT22;15238;49.082;9.102;2024-01-10T11:04:25;0.00;99.90
27890;DHT22;15238;49.082;9.102;2024-01-10T11:06:27;0.00;99.90
27890;DHT22;15238;49.082;9.102;2024-01-10T11:08:30;0.00;99.90
27890;DHT22;15238;49.082;9.102;2024-01-10T11:10:33;0.00;99.90
27890;DHT22;15238;49.082;9.102;2024-01-10T11:12:55;-0.10;99.90
27890;DHT22;15238;49.082;9.102;2024-01-10T11:15:35;-0.10;99.90
27890;DHT22;15238;49.082;9.102;2024-01-10T11:18:07;0.00;99.90
27890;DHT22;15238;49.082;9.102;2024-01-10T11:20:21;0.10;99.90
27890;DHT22;15238;49.082;9.102;2024-01-10T11:22:46;0.20;99.90
27890;DHT22;15238;49.082;9.102;2024-01-10T11:24:50;0.20;99.90
27890;DHT22;15238;49.082;9.102;2024-01-10T11:26:50;0.20;99.90
27890;DHT22;15238;49.082;9.102;2024-01-10T11:29:06;0.20;99.90
27890;DHT22;15238;49.082;9.102;2024-01-10T11:31:07;0.20;99.90
27890;DHT22;15238;49.082;9.102;2024-01-10T11:33:31;0.20;99.90
27890;DHT22;15238;49.082;9.102;2024-01-10T11:35:32;0.30;99.90
27890;DHT22;15238;49.082;9.102;2024-01-10T11:37:43;0.30;99.90
27890;DHT22;15238;49.082;9.102;2024-01-10T11:39:44;0.20;99.90
27890;DHT22;15238;49.082;9.102;2024-01-10T11:41:46;0.20;99.90
27890;DHT22;15238;49.082;9.102;2024-01-10T11:46:17;0.30;99.90
27890;DHT22;15238;49.082;9.102;2024-01-10T11:48:29;0.30;99.90
27890;DHT22;15238;49.082;9.102;2024-01-10T11:50:31;0.40;99.90
27890;DHT22;15238;49.082;9.102;2024-01-10T11:52:32;0.40;99.90
27890;DHT22;15238;49.082;9.102;2024-01-10T11:54:44;0.50;99.90
27890;DHT22;15238;49.082;9.102;2024-01-10T11:56:45;0.40;99.90
27890;DHT22;15238;49.082;9.102;2024-01-10T11:59:02;0.50;99.90
27890;DHT22;15238;49.082;9.102;2024-01-10T12:01:09;0.50;99.90
27890;DHT22;15238;49.082;9.102;2024-01-10T12:03:11;0.60;99.90
27890;DHT22;15238;49.082;9.102;2024-01-10T12:05:12;0.40;99.90
27890;DHT22;15238;49.082;9.102;2024-01-10T12:07:13;0.40;99.90
27890;DHT22;15238;49.082;9.102;2024-01-10T12:09:14;0.40;99.90
27890;DHT22;15238;49.082;9.102;2024-01-10T12:11:15;0.40;99.90
27890;DHT22;15238;49.082;9.102;2024-01-10T12:13:16;0.40;99.90
27890;DHT22;15238;49.082;9.102;2024-01-10T12:15:16;0.50;99.90
27890;DHT22;15238;49.082;9.102;2024-01-10T12:17:17;0.50;99.90
27890;DHT22;15238;49.082;9.102;2024-01-10T12:19:19;0.60;99.90
27890;DHT22;15238;49.082;9.102;2024-01-10T12:21:19;0.60;99.90
27890;DHT22;15238;49.082;9.102;2024-01-10T12:23:20;0.60;99.90
27890;DHT22;15238;49.082;9.102;2024-01-10T12:25:20;0.50;99.90
27890;DHT22;15238;49.082;9.102;2024-01-10T12:27:20;0.50;99.90
27890;DHT22;15238;49.082;9.102;2024-01-10T12:29:21;0.60;99.90
27890;DHT22;15238;49.082;9.102;2024-01-10T12:31:26;0.60;99.90
27890;DHT22;15238;49.082;9.102;2024-01-10T12:33:27;0.60;99.90
27890;DHT22;15238;49.082;9.102;2024-01-10T12:35:27;0.70;99.90
27890;DHT22;15238;49.082;9.102;2024-01-10T12:37:28;0.70;99.90
27890;DHT22;15238;49.082;9.102;2024-01-10T12:39:28;0.70;99.90
27890;DHT22;15238;49.082;9.102;2024-01-10T12:41:31;0.60;99.90
27890;DHT22;15238;49.082;9.102;2024-01-10T12:43:32;0.60;99.90
27890;DHT22;15238;49.082;9.102;2024-01-10T12:45:32;0.70;99.90
27890;DHT22;15238;49.082;9.102;2024-01-10T12:47:34;0.60;99.90
27890;DHT22;15238;49.082;9.102;2024-01-10T12:49:35;0.60;99.90
27890;DHT22;15238;49.082;9.102;2024-01-10T12:51:37;0.60;99.90